createdAt,value
2022-10-21T00:00:31.639Z,17.00
2022-10-21T00:05:33.432Z,17.10
2022-10-21T00:10:35.187Z,17.00
2022-10-21T00:15:36.917Z,17.00
2022-10-21T00:20:41.305Z,16.90
2022-10-21T00:25:43.189Z,16.90
2022-10-21T00:30:46.010Z,16.80
2022-10-21T00:35:55.586Z,16.80
2022-10-21T00:40:57.930Z,16.80
2022-10-21T00:46:03.490Z,16.60
2022-10-21T00:51:14.459Z,16.60
2022-10-21T00:56:21.523Z,16.50
2022-10-21T01:01:23.543Z,16.40
2022-10-21T01:06:26.387Z,16.20
2022-10-21T01:11:30.255Z,16.20
2022-10-21T01:16:49.535Z,16.20
2022-10-21T01:21:58.089Z,16.10
2022-10-21T01:27:15.109Z,16.00
2022-10-21T01:32:34.975Z,16.10
2022-10-21T01:38:15.900Z,16.10
2022-10-21T01:43:26.841Z,16.00
2022-10-21T01:48:37.565Z,15.90
2022-10-21T01:53:50.569Z,15.80
2022-10-21T01:58:53.603Z,15.80
2022-10-21T02:03:59.363Z,15.80
2022-10-21T02:09:01.294Z,15.70
2022-10-21T02:14:15.048Z,15.60
2022-10-21T02:19:19.647Z,15.40
2022-10-21T02:24:44.832Z,15.30
2022-10-21T02:29:48.828Z,15.40
2022-10-21T02:35:21.786Z,15.20
2022-10-21T02:40:52.515Z,15.30
2022-10-21T02:45:54.977Z,15.20
2022-10-21T02:50:56.731Z,15.00
2022-10-21T02:55:58.481Z,14.90
2022-10-21T03:01:00.978Z,15.00
2022-10-21T03:06:02.914Z,15.10
2022-10-21T03:11:05.637Z,15.00
2022-10-21T03:16:08.097Z,15.00
2022-10-21T03:21:09.999Z,14.90
2022-10-21T03:26:11.758Z,14.90
2022-10-21T03:31:13.635Z,15.10
2022-10-21T03:36:15.443Z,14.90
2022-10-21T03:41:17.343Z,14.90
2022-10-21T03:46:19.276Z,14.90
2022-10-21T03:51:21.073Z,14.90
2022-10-21T03:56:22.808Z,14.80
2022-10-21T04:01:24.764Z,14.70
2022-10-21T04:06:26.682Z,14.80
2022-10-21T04:11:28.577Z,14.80
2022-10-21T04:16:30.429Z,14.80
2022-10-21T04:21:32.144Z,14.70
2022-10-21T04:26:33.892Z,14.70
2022-10-21T04:31:35.976Z,14.80
2022-10-21T04:36:37.730Z,14.70
2022-10-21T04:41:39.588Z,14.70
2022-10-21T04:46:41.319Z,14.70
2022-10-21T04:51:43.245Z,14.80
2022-10-21T04:56:45.099Z,14.90
2022-10-21T05:01:46.872Z,14.80
2022-10-21T05:06:48.662Z,14.90
2022-10-21T05:11:51.153Z,14.80
2022-10-21T05:16:52.963Z,14.90
2022-10-21T05:21:54.763Z,15.00
2022-10-21T05:26:56.516Z,15.00
2022-10-21T05:31:58.436Z,15.10
2022-10-21T05:37:00.186Z,15.10
2022-10-21T05:42:02.103Z,15.10
2022-10-21T05:47:04.572Z,15.20
2022-10-21T05:52:06.357Z,15.30
2022-10-21T05:57:08.107Z,15.30
2022-10-21T06:02:10.925Z,15.30
2022-10-21T06:07:12.795Z,15.30
2022-10-21T06:12:14.494Z,15.20
2022-10-21T06:17:16.336Z,15.20
2022-10-21T06:22:18.347Z,15.10
2022-10-21T06:27:20.270Z,15.30
2022-10-21T06:32:22.036Z,15.30
2022-10-21T06:37:23.777Z,15.30
2022-10-21T06:42:25.657Z,15.40
2022-10-21T06:47:27.374Z,15.40
2022-10-21T06:52:31.609Z,15.30
2022-10-21T06:57:33.798Z,15.30
2022-10-21T07:02:37.073Z,15.30
2022-10-21T07:07:39.275Z,15.30
2022-10-21T07:12:41.233Z,15.30
2022-10-21T07:17:43.012Z,15.40
2022-10-21T07:22:44.886Z,15.40
2022-10-21T07:27:48.915Z,15.40
2022-10-21T07:32:51.095Z,15.40
2022-10-21T07:37:52.902Z,15.40
2022-10-21T07:42:55.672Z,15.40
2022-10-21T07:47:57.635Z,15.40
2022-10-21T07:53:10.979Z,15.50
2022-10-21T07:58:14.020Z,15.50
2022-10-21T08:03:15.836Z,15.60
2022-10-21T08:08:17.667Z,15.60
2022-10-21T08:13:20.089Z,15.70
2022-10-21T08:18:22.379Z,15.80
2022-10-21T08:23:26.374Z,15.80
2022-10-21T08:28:30.774Z,15.90
2022-10-21T08:33:32.701Z,16.00
2022-10-21T08:38:35.208Z,16.10
2022-10-21T08:43:39.528Z,16.10
2022-10-21T08:48:58.370Z,16.10
2022-10-21T08:54:05.805Z,16.20
2022-10-21T08:59:23.218Z,16.30
2022-10-21T09:04:52.377Z,16.40
2022-10-21T09:10:00.166Z,16.50
2022-10-21T09:15:22.492Z,16.60
2022-10-21T09:21:04.654Z,16.70
2022-10-21T09:26:30.609Z,16.80
2022-10-21T09:31:32.582Z,16.90
2022-10-21T09:36:39.201Z,17.00
2022-10-21T09:41:44.648Z,17.20
2022-10-21T09:46:48.749Z,17.50
2022-10-21T09:51:50.924Z,17.60
2022-10-21T09:57:01.812Z,17.70
2022-10-21T10:02:16.229Z,17.80
2022-10-21T10:07:33.084Z,17.80
2022-10-21T10:12:34.861Z,17.90
2022-10-21T10:17:38.627Z,17.90
2022-10-21T10:23:08.757Z,17.90
2022-10-21T10:28:10.450Z,17.90
2022-10-21T10:33:28.520Z,18.00
2022-10-21T10:38:41.017Z,18.10
2022-10-21T10:43:49.432Z,18.10
2022-10-21T10:48:52.658Z,18.10
2022-10-21T10:54:20.334Z,18.30
2022-10-21T10:59:44.057Z,18.30
2022-10-21T11:05:00.640Z,18.40
2022-10-21T11:10:07.723Z,18.50
2022-10-21T11:15:15.136Z,18.50
2022-10-21T11:20:24.656Z,18.50
2022-10-21T11:25:40.424Z,18.50
2022-10-21T11:31:15.440Z,18.50
2022-10-21T11:36:40.632Z,18.50
2022-10-21T11:41:52.679Z,18.60
2022-10-21T11:47:31.802Z,18.80
2022-10-21T11:52:58.489Z,19.30
2022-10-21T11:58:38.555Z,19.80
2022-10-21T12:04:06.444Z,19.80
2022-10-21T12:09:21.561Z,19.80
2022-10-21T12:14:31.645Z,20.00
2022-10-21T12:19:35.296Z,20.00
2022-10-21T12:24:52.693Z,20.00
2022-10-21T12:30:23.406Z,20.20
2022-10-21T12:40:50.981Z,20.30
2022-10-21T12:46:08.731Z,20.40
2022-10-21T12:51:22.679Z,20.60
2022-10-21T12:56:27.182Z,20.60
2022-10-21T13:01:37.476Z,20.60
2022-10-21T13:07:00.274Z,20.90
2022-10-21T13:12:07.958Z,21.00
2022-10-21T13:17:33.531Z,21.30
2022-10-21T13:22:40.561Z,21.30
2022-10-21T13:27:55.164Z,21.40
2022-10-21T13:33:20.115Z,21.60
2022-10-21T13:38:33.658Z,22.00
2022-10-21T13:43:54.198Z,22.40
2022-10-21T13:48:59.645Z,22.70
2022-10-21T13:54:10.046Z,22.60
2022-10-21T13:59:29.994Z,22.40
2022-10-21T14:04:33.477Z,22.60
2022-10-21T14:09:40.676Z,22.70
2022-10-21T14:14:42.557Z,23.10
2022-10-21T14:19:49.022Z,23.00
2022-10-21T14:24:56.608Z,23.10
2022-10-21T14:30:01.516Z,22.90
2022-10-21T14:35:23.928Z,23.20
2022-10-21T14:40:34.262Z,23.70
2022-10-21T14:45:45.205Z,24.20
2022-10-21T14:50:59.930Z,24.60
2022-10-21T14:56:05.682Z,24.70
2022-10-21T15:01:13.735Z,24.10
2022-10-21T15:06:28.344Z,24.20
2022-10-21T15:11:33.964Z,24.10
2022-10-21T15:21:53.478Z,23.50
2022-10-21T15:26:59.631Z,23.60
2022-10-21T15:32:02.133Z,23.10
2022-10-21T15:37:04.046Z,22.70
2022-10-21T15:42:06.132Z,22.20
2022-10-21T15:47:11.731Z,21.60
2022-10-21T15:52:14.507Z,21.20
2022-10-21T15:57:21.818Z,20.90
2022-10-21T16:02:23.522Z,20.60
2022-10-21T16:07:37.101Z,20.40
2022-10-21T16:12:39.051Z,20.30
2022-10-21T16:17:46.022Z,20.20
2022-10-21T16:22:47.873Z,20.00
2022-10-21T16:27:55.956Z,19.80
2022-10-21T16:32:58.306Z,19.60
2022-10-21T16:38:00.167Z,19.50
2022-10-21T16:43:01.916Z,19.40
2022-10-21T16:48:04.742Z,19.30
2022-10-21T16:53:08.461Z,19.20
2022-10-21T16:58:10.196Z,19.20
2022-10-21T17:03:12.398Z,19.10
2022-10-21T17:08:14.377Z,19.10
2022-10-21T17:13:16.297Z,18.90
2022-10-21T17:18:18.350Z,18.80
2022-10-21T17:23:20.863Z,18.70
2022-10-21T17:28:22.667Z,18.60
2022-10-21T17:33:24.925Z,18.60
2022-10-21T17:38:26.788Z,18.50
2022-10-21T17:43:29.839Z,18.40
2022-10-21T17:48:32.600Z,18.40
2022-10-21T17:53:34.373Z,18.30
2022-10-21T17:58:36.162Z,18.20
2022-10-21T18:03:38.759Z,18.10
2022-10-21T18:08:40.911Z,18.10
2022-10-21T18:13:43.297Z,18.00
2022-10-21T18:18:45.585Z,17.90
2022-10-21T18:23:49.741Z,17.90
2022-10-21T18:28:57.178Z,17.90
2022-10-21T18:34:00.851Z,17.90
2022-10-21T18:39:03.143Z,17.80
2022-10-21T18:44:10.676Z,17.90
2022-10-21T18:49:14.664Z,17.80
2022-10-21T18:54:16.420Z,17.70
2022-10-21T18:59:18.277Z,17.60
2022-10-21T19:04:20.446Z,17.70
2022-10-21T19:09:25.792Z,17.60
2022-10-21T19:14:28.565Z,17.60
2022-10-21T19:19:30.433Z,17.60
2022-10-21T19:24:32.209Z,17.60
2022-10-21T19:29:33.962Z,17.60
2022-10-21T19:34:35.765Z,17.50
2022-10-21T19:39:37.544Z,17.40
2022-10-21T19:44:39.468Z,17.50
2022-10-21T19:49:41.569Z,17.40
2022-10-21T19:54:43.494Z,17.30
2022-10-21T19:59:45.340Z,17.30
2022-10-21T20:04:47.235Z,17.30
2022-10-21T20:09:49.140Z,17.20
2022-10-21T20:14:50.856Z,17.20
2022-10-21T20:19:52.667Z,17.10
2022-10-21T20:24:54.439Z,17.20
2022-10-21T20:29:57.315Z,17.10
2022-10-21T20:34:59.187Z,17.10
2022-10-21T20:40:00.907Z,17.10
2022-10-21T20:45:03.954Z,17.10
2022-10-21T20:50:06.100Z,17.00
2022-10-21T20:55:08.204Z,17.00
2022-10-21T21:00:11.719Z,16.90
2022-10-21T21:05:15.911Z,16.90
2022-10-21T21:10:17.793Z,16.80
2022-10-21T21:15:19.741Z,16.80
2022-10-21T21:20:21.646Z,16.80
2022-10-21T21:25:23.417Z,16.70
2022-10-21T21:30:25.178Z,16.70
2022-10-21T21:35:26.927Z,16.60
2022-10-21T21:40:29.864Z,16.60
2022-10-21T21:45:31.579Z,16.50
2022-10-21T21:50:33.292Z,16.50
2022-10-21T21:55:35.235Z,16.50
2022-10-21T22:00:37.275Z,16.50
2022-10-21T22:05:39.075Z,16.50
2022-10-21T22:10:41.072Z,16.40
2022-10-21T22:15:48.066Z,16.40
2022-10-21T22:20:50.261Z,16.30
2022-10-21T22:25:52.243Z,16.20
2022-10-21T22:31:03.939Z,16.10
2022-10-21T22:36:06.850Z,16.10
2022-10-21T22:41:12.528Z,16.00
2022-10-21T22:46:33.377Z,15.90
2022-10-21T22:51:36.046Z,15.80
2022-10-21T22:56:37.850Z,15.80
2022-10-21T23:01:39.551Z,15.60
2022-10-21T23:06:41.279Z,15.70
2022-10-21T23:11:43.116Z,15.50
2022-10-21T23:16:45.000Z,15.40
2022-10-21T23:21:46.740Z,15.30
2022-10-21T23:26:48.612Z,15.30
2022-10-21T23:31:50.354Z,15.10
2022-10-21T23:36:52.474Z,15.10
2022-10-21T23:41:54.189Z,15.00
2022-10-21T23:46:57.085Z,14.90
2022-10-21T23:51:59.082Z,14.70
2022-10-21T23:57:00.961Z,14.80
